sensor_id;sensor_type;location;lat;lon;timestamp;temperature;humidity
8093;DHT22;4089;52.420;13.334;2023-07-09T00:00:52;20.50;73.40
8093;DHT22;4089;52.420;13.334;2023-07-09T00:03:19;20.50;75.30
8093;DHT22;4089;52.420;13.334;2023-07-09T00:05:48;20.50;76.80
8093;DHT22;4089;52.420;13.334;2023-07-09T00:08:29;20.50;80.70
8093;DHT22;4089;52.420;13.334;2023-07-09T00:10:57;20.40;82.70
8093;DHT22;4089;52.420;13.334;2023-07-09T00:13:26;20.40;85.30
8093;DHT22;4089;52.420;13.334;2023-07-09T00:15:58;20.30;86.70
8093;DHT22;4089;52.420;13.334;2023-07-09T00:18:28;20.30;87.70
8093;DHT22;4089;52.420;13.334;2023-07-09T00:20:54;20.30;90.50
8093;DHT22;4089;52.420;13.334;2023-07-09T00:23:21;20.30;89.80
8093;DHT22;4089;52.420;13.334;2023-07-09T00:25:48;20.30;92.60
8093;DHT22;4089;52.420;13.334;2023-07-09T00:28:19;20.30;92.60
8093;DHT22;4089;52.420;13.334;2023-07-09T00:30:47;20.20;92.50
8093;DHT22;4089;52.420;13.334;2023-07-09T00:33:16;20.30;93.90
8093;DHT22;4089;52.420;13.334;2023-07-09T00:35:46;20.30;93.10
8093;DHT22;4089;52.420;13.334;2023-07-09T00:38:20;20.20;93.50
8093;DHT22;4089;52.420;13.334;2023-07-09T00:41:03;20.20;93.20
8093;DHT22;4089;52.420;13.334;2023-07-09T00:43:34;20.20;93.90
8093;DHT22;4089;52.420;13.334;2023-07-09T00:48:50;20.10;94.40
8093;DHT22;4089;52.420;13.334;2023-07-09T00:51:20;20.10;95.80
8093;DHT22;4089;52.420;13.334;2023-07-09T00:53:51;20.10;95.40
8093;DHT22;4089;52.420;13.334;2023-07-09T00:56:33;20.10;95.50
8093;DHT22;4089;52.420;13.334;2023-07-09T00:59:07;20.10;96.00
8093;DHT22;4089;52.420;13.334;2023-07-09T01:01:36;20.10;95.10
8093;DHT22;4089;52.420;13.334;2023-07-09T01:04:03;20.10;95.40
8093;DHT22;4089;52.420;13.334;2023-07-09T01:06:37;20.10;95.90
8093;DHT22;4089;52.420;13.334;2023-07-09T01:09:06;20.00;98.60
8093;DHT22;4089;52.420;13.334;2023-07-09T01:11:34;20.00;99.30
8093;DHT22;4089;52.420;13.334;2023-07-09T01:14:03;19.90;99.50
8093;DHT22;4089;52.420;13.334;2023-07-09T01:16:39;19.90;98.10
8093;DHT22;4089;52.420;13.334;2023-07-09T01:19:06;19.80;98.70
8093;DHT22;4089;52.420;13.334;2023-07-09T01:21:33;19.70;98.80
8093;DHT22;4089;52.420;13.334;2023-07-09T01:26:39;19.80;98.70
8093;DHT22;4089;52.420;13.334;2023-07-09T01:29:06;19.70;99.90
8093;DHT22;4089;52.420;13.334;2023-07-09T01:31:33;19.70;99.90
8093;DHT22;4089;52.420;13.334;2023-07-09T01:34:00;19.60;99.90
8093;DHT22;4089;52.420;13.334;2023-07-09T01:36:27;19.50;99.90
8093;DHT22;4089;52.420;13.334;2023-07-09T01:38:56;19.30;99.90
8093;DHT22;4089;52.420;13.334;2023-07-09T01:41:23;19.20;99.90
8093;DHT22;4089;52.420;13.334;2023-07-09T01:43:49;19.20;99.90
8093;DHT22;4089;52.420;13.334;2023-07-09T01:46:16;19.10;99.90
8093;DHT22;4089;52.420;13.334;2023-07-09T01:48:43;19.10;99.90
8093;DHT22;4089;52.420;13.334;2023-07-09T01:51:14;19.20;99.90
8093;DHT22;4089;52.420;13.334;2023-07-09T01:53:43;19.20;99.90
8093;DHT22;4089;52.420;13.334;2023-07-09T01:56:11;19.10;99.90
8093;DHT22;4089;52.420;13.334;2023-07-09T01:58:38;19.10;99.90
8093;DHT22;4089;52.420;13.334;2023-07-09T02:01:09;19.10;99.90
8093;DHT22;4089;52.420;13.334;2023-07-09T02:03:36;19.10;99.90
8093;DHT22;4089;52.420;13.334;2023-07-09T02:06:03;19.00;99.90
8093;DHT22;4089;52.420;13.334;2023-07-09T02:08:37;19.00;99.90
8093;DHT22;4089;52.420;13.334;2023-07-09T02:11:04;19.00;99.90
8093;DHT22;4089;52.420;13.334;2023-07-09T02:13:31;18.90;99.90
8093;DHT22;4089;52.420;13.334;2023-07-09T02:15:58;18.90;99.90
8093;DHT22;4089;52.420;13.334;2023-07-09T02:18:27;18.90;99.90
8093;DHT22;4089;52.420;13.334;2023-07-09T02:20:54;18.90;99.90
8093;DHT22;4089;52.420;13.334;2023-07-09T02:23:28;18.90;99.90
8093;DHT22;4089;52.420;13.334;2023-07-09T02:25:55;18.80;99.90
8093;DHT22;4089;52.420;13.334;2023-07-09T02:28:22;18.70;99.90
8093;DHT22;4089;52.420;13.334;2023-07-09T02:30:49;18.60;99.90
8093;DHT22;4089;52.420;13.334;2023-07-09T02:33:16;18.50;99.90
8093;DHT22;4089;52.420;13.334;2023-07-09T02:35:43;18.50;99.90
8093;DHT22;4089;52.420;13.334;2023-07-09T02:38:10;18.40;99.90
8093;DHT22;4089;52.420;13.334;2023-07-09T02:40:38;18.30;99.90
8093;DHT22;4089;52.420;13.334;2023-07-09T02:43:05;18.20;99.90
8093;DHT22;4089;52.420;13.334;2023-07-09T02:45:32;18.20;99.90
8093;DHT22;4089;52.420;13.334;2023-07-09T02:47:59;18.30;99.90
8093;DHT22;4089;52.420;13.334;2023-07-09T02:50:26;18.30;99.90
8093;DHT22;4089;52.420;13.334;2023-07-09T02:52:52;18.20;99.90
8093;DHT22;4089;52.420;13.334;2023-07-09T02:55:19;18.10;99.90
8093;DHT22;4089;52.420;13.334;2023-07-09T02:57:46;18.00;99.90
8093;DHT22;4089;52.420;13.334;2023-07-09T03:00:13;18.10;99.90
8093;DHT22;4089;52.420;13.334;2023-07-09T03:02:40;18.10;99.90
8093;DHT22;4089;52.420;13.334;2023-07-09T03:05:07;18.10;99.90
8093;DHT22;4089;52.420;13.334;2023-07-09T03:07:37;18.10;99.90
8093;DHT22;4089;52.420;13.334;2023-07-09T03:10:04;18.10;99.90
8093;DHT22;4089;52.420;13.334;2023-07-09T03:12:31;18.20;99.90
8093;DHT22;4089;52.420;13.334;2023-07-09T03:14:58;18.10;99.90
8093;DHT22;4089;52.420;13.334;2023-07-09T03:17:25;18.00;99.90
8093;DHT22;4089;52.420;13.334;2023-07-09T03:19:52;17.90;99.90
8093;DHT22;4089;52.420;13.334;2023-07-09T03:22:19;17.90;99.90
8093;DHT22;4089;52.420;13.334;2023-07-09T03:24:45;17.80;99.90
8093;DHT22;4089;52.420;13.334;2023-07-09T03:27:12;17.90;99.90
8093;DHT22;4089;52.420;13.334;2023-07-09T03:29:39;17.90;99.90
8093;DHT22;4089;52.420;13.334;2023-07-09T03:32:06;17.80;99.90
8093;DHT22;4089;52.420;13.334;2023-07-09T03:34:33;17.80;99.90
8093;DHT22;4089;52.420;13.334;2023-07-09T03:37:00;17.90;99.90
8093;DHT22;4089;52.420;13.334;2023-07-09T03:39:26;17.90;99.90
8093;DHT22;4089;52.420;13.334;2023-07-09T03:41:53;18.00;99.90
8093;DHT22;4089;52.420;13.334;2023-07-09T03:44:20;18.00;99.90
8093;DHT22;4089;52.420;13.334;2023-07-09T03:46:47;18.00;99.90
8093;DHT22;4089;52.420;13.334;2023-07-09T03:49:13;18.00;99.90
8093;DHT22;4089;52.420;13.334;2023-07-09T03:51:40;18.10;99.90
8093;DHT22;4089;52.420;13.334;2023-07-09T03:54:07;18.10;99.90
8093;DHT22;4089;52.420;13.334;2023-07-09T03:56:34;18.20;99.90
8093;DHT22;4089;52.420;13.334;2023-07-09T03:59:00;18.30;99.90
8093;DHT22;4089;52.420;13.334;2023-07-09T04:01:27;18.30;99.90
8093;DHT22;4089;52.420;13.334;2023-07-09T04:03:54;18.40;99.90
8093;DHT22;4089;52.420;13.334;2023-07-09T04:06:21;18.40;99.90
8093;DHT22;4089;52.420;13.334;2023-07-09T04:08:48;18.40;99.90
8093;DHT22;4089;52.420;13.334;2023-07-09T04:11:15;18.50;99.90
8093;DHT22;4089;52.420;13.334;2023-07-09T04:13:41;18.60;99.90
8093;DHT22;4089;52.420;13.334;2023-07-09T04:16:09;18.70;99.90
8093;DHT22;4089;52.420;13.334;2023-07-09T04:18:37;18.80;99.90
8093;DHT22;4089;52.420;13.334;2023-07-09T04:21:03;18.90;99.90
8093;DHT22;4089;52.420;13.334;2023-07-09T04:23:30;19.00;99.90
8093;DHT22;4089;52.420;13.334;2023-07-09T04:25:57;19.00;99.90
8093;DHT22;4089;52.420;13.334;2023-07-09T04:28:25;19.00;99.90
8093;DHT22;4089;52.420;13.334;2023-07-09T04:30:52;19.10;99.90
8093;DHT22;4089;52.420;13.334;2023-07-09T04:33:20;19.10;99.90
8093;DHT22;4089;52.420;13.334;2023-07-09T04:35:48;19.20;99.90
8093;DHT22;4089;52.420;13.334;2023-07-09T04:38:15;19.30;99.90
8093;DHT22;4089;52.420;13.334;2023-07-09T04:40:42;19.40;99.90
8093;DHT22;4089;52.420;13.334;2023-07-09T04:43:09;19.50;99.90
8093;DHT22;4089;52.420;13.334;2023-07-09T04:45:36;19.60;99.90
8093;DHT22;4089;52.420;13.334;2023-07-09T04:48:03;19.70;99.90
8093;DHT22;4089;52.420;13.334;2023-07-09T04:50:30;19.80;99.90
8093;DHT22;4089;52.420;13.334;2023-07-09T04:52:58;19.90;99.90
8093;DHT22;4089;52.420;13.334;2023-07-09T04:55:26;20.00;99.90
8093;DHT22;4089;52.420;13.334;2023-07-09T04:57:53;20.10;99.90
8093;DHT22;4089;52.420;13.334;2023-07-09T05:00:20;20.20;99.90
8093;DHT22;4089;52.420;13.334;2023-07-09T05:02:47;20.30;99.90
8093;DHT22;4089;52.420;13.334;2023-07-09T05:05:14;20.40;99.90
8093;DHT22;4089;52.420;13.334;2023-07-09T05:07:41;20.50;99.90
8093;DHT22;4089;52.420;13.334;2023-07-09T05:10:09;20.60;99.90
8093;DHT22;4089;52.420;13.334;2023-07-09T05:12:36;20.70;99.90
8093;DHT22;4089;52.420;13.334;2023-07-09T05:15:12;20.80;99.90
8093;DHT22;4089;52.420;13.334;2023-07-09T05:17:39;20.80;99.90
8093;DHT22;4089;52.420;13.334;2023-07-09T05:20:06;21.00;99.90
8093;DHT22;4089;52.420;13.334;2023-07-09T05:22:33;21.10;99.90
8093;DHT22;4089;52.420;13.334;2023-07-09T05:25:00;21.20;99.90
8093;DHT22;4089;52.420;13.334;2023-07-09T05:27:27;21.40;99.90
8093;DHT22;4089;52.420;13.334;2023-07-09T05:29:54;21.50;99.90
8093;DHT22;4089;52.420;13.334;2023-07-09T05:32:21;21.60;99.90
8093;DHT22;4089;52.420;13.334;2023-07-09T05:34:47;21.50;99.90
8093;DHT22;4089;52.420;13.334;2023-07-09T05:37:14;21.60;99.90
8093;DHT22;4089;52.420;13.334;2023-07-09T05:39:41;21.70;99.90
8093;DHT22;4089;52.420;13.334;2023-07-09T05:42:08;21.80;99.90
8093;DHT22;4089;52.420;13.334;2023-07-09T05:44:35;21.80;99.90
8093;DHT22;4089;52.420;13.334;2023-07-09T05:47:02;21.90;99.90
8093;DHT22;4089;52.420;13.334;2023-07-09T05:49:29;22.00;99.90
8093;DHT22;4089;52.420;13.334;2023-07-09T05:51:56;22.10;99.90
8093;DHT22;4089;52.420;13.334;2023-07-09T05:54:23;22.20;99.90
8093;DHT22;4089;52.420;13.334;2023-07-09T05:56:50;22.20;99.90
8093;DHT22;4089;52.420;13.334;2023-07-09T05:59:16;22.40;99.90
8093;DHT22;4089;52.420;13.334;2023-07-09T06:01:44;22.40;99.90
8093;DHT22;4089;52.420;13.334;2023-07-09T06:04:11;22.50;99.90
8093;DHT22;4089;52.420;13.334;2023-07-09T06:06:41;22.60;99.90
8093;DHT22;4089;52.420;13.334;2023-07-09T06:09:08;22.70;99.90
8093;DHT22;4089;52.420;13.334;2023-07-09T06:11:35;22.80;99.90
8093;DHT22;4089;52.420;13.334;2023-07-09T06:14:02;23.00;99.90
8093;DHT22;4089;52.420;13.334;2023-07-09T06:16:33;23.00;99.90
8093;DHT22;4089;52.420;13.334;2023-07-09T06:19:00;23.00;99.90
8093;DHT22;4089;52.420;13.334;2023-07-09T06:21:27;23.20;99.90
8093;DHT22;4089;52.420;13.334;2023-07-09T06:23:54;23.30;99.90
8093;DHT22;4089;52.420;13.334;2023-07-09T06:26:21;23.40;99.90
8093;DHT22;4089;52.420;13.334;2023-07-09T06:28:47;23.50;99.90
8093;DHT22;4089;52.420;13.334;2023-07-09T06:31:14;23.60;99.90
8093;DHT22;4089;52.420;13.334;2023-07-09T06:33:41;23.70;99.90
8093;DHT22;4089;52.420;13.334;2023-07-09T06:36:08;23.80;99.90
8093;DHT22;4089;52.420;13.334;2023-07-09T06:38:35;23.90;99.90
8093;DHT22;4089;52.420;13.334;2023-07-09T06:41:02;24.20;99.90
8093;DHT22;4089;52.420;13.334;2023-07-09T06:43:29;24.30;99.90
8093;DHT22;4089;52.420;13.334;2023-07-09T06:45:59;24.40;99.90
8093;DHT22;4089;52.420;13.334;2023-07-09T06:48:27;24.50;99.90
8093;DHT22;4089;52.420;13.334;2023-07-09T06:50:56;24.70;99.90
8093;DHT22;4089;52.420;13.334;2023-07-09T06:53:24;24.70;99.90
8093;DHT22;4089;52.420;13.334;2023-07-09T06:55:51;24.70;99.90
8093;DHT22;4089;52.420;13.334;2023-07-09T06:58:23;24.80;99.90
8093;DHT22;4089;52.420;13.334;2023-07-09T07:00:52;24.90;99.90
8093;DHT22;4089;52.420;13.334;2023-07-09T07:03:19;25.00;99.40
8093;DHT22;4089;52.420;13.334;2023-07-09T07:05:47;25.10;98.90
8093;DHT22;4089;52.420;13.334;2023-07-09T07:08:17;25.20;99.30
8093;DHT22;4089;52.420;13.334;2023-07-09T07:10:45;25.30;99.00
8093;DHT22;4089;52.420;13.334;2023-07-09T07:13:13;25.30;98.50
8093;DHT22;4089;52.420;13.334;2023-07-09T07:15:41;25.30;98.80
8093;DHT22;4089;52.420;13.334;2023-07-09T07:18:08;25.50;98.40
8093;DHT22;4089;52.420;13.334;2023-07-09T07:20:34;25.60;98.50
8093;DHT22;4089;52.420;13.334;2023-07-09T07:23:01;25.80;97.80
8093;DHT22;4089;52.420;13.334;2023-07-09T07:25:28;25.90;96.80
8093;DHT22;4089;52.420;13.334;2023-07-09T07:27:57;25.90;96.70
8093;DHT22;4089;52.420;13.334;2023-07-09T07:30:23;26.10;96.70
8093;DHT22;4089;52.420;13.334;2023-07-09T07:32:52;26.10;96.70
8093;DHT22;4089;52.420;13.334;2023-07-09T07:35:18;26.20;96.60
8093;DHT22;4089;52.420;13.334;2023-07-09T07:37:46;26.20;96.20
8093;DHT22;4089;52.420;13.334;2023-07-09T07:40:13;26.30;97.50
8093;DHT22;4089;52.420;13.334;2023-07-09T07:42:40;26.50;97.70
8093;DHT22;4089;52.420;13.334;2023-07-09T07:45:07;26.50;96.90
8093;DHT22;4089;52.420;13.334;2023-07-09T07:47:35;26.50;95.90
8093;DHT22;4089;52.420;13.334;2023-07-09T07:50:05;26.30;95.80
8093;DHT22;4089;52.420;13.334;2023-07-09T07:52:32;26.40;94.80
8093;DHT22;4089;52.420;13.334;2023-07-09T07:54:59;26.60;94.80
8093;DHT22;4089;52.420;13.334;2023-07-09T07:57:27;26.80;95.30
8093;DHT22;4089;52.420;13.334;2023-07-09T07:59:54;27.10;95.70
8093;DHT22;4089;52.420;13.334;2023-07-09T08:02:20;27.30;97.00
8093;DHT22;4089;52.420;13.334;2023-07-09T08:04:47;27.30;93.70
8093;DHT22;4089;52.420;13.334;2023-07-09T08:07:14;27.40;93.40
8093;DHT22;4089;52.420;13.334;2023-07-09T08:09:41;27.40;95.10
8093;DHT22;4089;52.420;13.334;2023-07-09T08:12:08;27.50;94.60
8093;DHT22;4089;52.420;13.334;2023-07-09T08:14:42;27.50;92.90
8093;DHT22;4089;52.420;13.334;2023-07-09T08:17:11;27.50;94.80
8093;DHT22;4089;52.420;13.334;2023-07-09T08:19:52;27.50;93.90
8093;DHT22;4089;52.420;13.334;2023-07-09T08:22:22;27.50;92.90
8093;DHT22;4089;52.420;13.334;2023-07-09T08:24:49;27.50;93.00
8093;DHT22;4089;52.420;13.334;2023-07-09T08:27:16;27.70;93.60
8093;DHT22;4089;52.420;13.334;2023-07-09T08:29:43;27.90;93.50
8093;DHT22;4089;52.420;13.334;2023-07-09T08:32:12;28.10;93.40
8093;DHT22;4089;52.420;13.334;2023-07-09T08:34:40;28.20;91.80
8093;DHT22;4089;52.420;13.334;2023-07-09T08:37:27;28.20;88.10
8093;DHT22;4089;52.420;13.334;2023-07-09T08:39:54;28.20;88.70
8093;DHT22;4089;52.420;13.334;2023-07-09T08:42:39;28.20;86.50
8093;DHT22;4089;52.420;13.334;2023-07-09T08:48:22;28.60;84.00
8093;DHT22;4089;52.420;13.334;2023-07-09T08:51:03;28.80;80.70
8093;DHT22;4089;52.420;13.334;2023-07-09T08:53:33;28.90;86.90
8093;DHT22;4089;52.420;13.334;2023-07-09T08:56:03;28.90;82.30
8093;DHT22;4089;52.420;13.334;2023-07-09T08:58:31;28.90;82.40
8093;DHT22;4089;52.420;13.334;2023-07-09T09:01:06;29.10;79.60
8093;DHT22;4089;52.420;13.334;2023-07-09T09:03:48;29.20;78.50
8093;DHT22;4089;52.420;13.334;2023-07-09T09:06:22;29.20;76.20
8093;DHT22;4089;52.420;13.334;2023-07-09T09:08:55;29.30;76.80
8093;DHT22;4089;52.420;13.334;2023-07-09T09:11:44;29.50;73.80
8093;DHT22;4089;52.420;13.334;2023-07-09T09:14:39;29.70;75.30
8093;DHT22;4089;52.420;13.334;2023-07-09T09:17:18;29.80;68.80
8093;DHT22;4089;52.420;13.334;2023-07-09T09:19:56;29.70;68.40
8093;DHT22;4089;52.420;13.334;2023-07-09T09:22:30;29.80;67.90
8093;DHT22;4089;52.420;13.334;2023-07-09T09:25:09;29.80;68.00
8093;DHT22;4089;52.420;13.334;2023-07-09T09:27:37;29.90;67.10
8093;DHT22;4089;52.420;13.334;2023-07-09T09:30:17;30.00;68.00
8093;DHT22;4089;52.420;13.334;2023-07-09T09:32:47;30.00;63.90
8093;DHT22;4089;52.420;13.334;2023-07-09T09:35:17;30.10;61.80
8093;DHT22;4089;52.420;13.334;2023-07-09T09:37:51;30.10;59.20
8093;DHT22;4089;52.420;13.334;2023-07-09T09:40:19;30.20;61.00
8093;DHT22;4089;52.420;13.334;2023-07-09T09:42:51;30.20;63.90
8093;DHT22;4089;52.420;13.334;2023-07-09T09:45:24;30.30;62.30
8093;DHT22;4089;52.420;13.334;2023-07-09T09:47:51;30.40;59.60
8093;DHT22;4089;52.420;13.334;2023-07-09T09:50:20;30.40;56.90
8093;DHT22;4089;52.420;13.334;2023-07-09T09:52:48;30.40;56.80
8093;DHT22;4089;52.420;13.334;2023-07-09T09:55:23;30.30;56.00
8093;DHT22;4089;52.420;13.334;2023-07-09T09:57:52;30.40;59.30
8093;DHT22;4089;52.420;13.334;2023-07-09T10:00:22;30.40;56.40
8093;DHT22;4089;52.420;13.334;2023-07-09T10:03:00;30.50;57.70
8093;DHT22;4089;52.420;13.334;2023-07-09T10:05:38;30.70;58.80
8093;DHT22;4089;52.420;13.334;2023-07-09T10:11:10;30.80;54.90
8093;DHT22;4089;52.420;13.334;2023-07-09T10:13:43;30.90;50.40
8093;DHT22;4089;52.420;13.334;2023-07-09T10:16:41;31.00;52.70
8093;DHT22;4089;52.420;13.334;2023-07-09T10:22:48;31.00;48.30
8093;DHT22;4089;52.420;13.334;2023-07-09T10:33:13;31.30;49.00
8093;DHT22;4089;52.420;13.334;2023-07-09T10:35:54;31.40;46.70
8093;DHT22;4089;52.420;13.334;2023-07-09T10:41:13;31.30;46.80
8093;DHT22;4089;52.420;13.334;2023-07-09T10:43:48;31.20;47.40
8093;DHT22;4089;52.420;13.334;2023-07-09T10:46:25;31.30;46.60
8093;DHT22;4089;52.420;13.334;2023-07-09T10:48:54;31.30;47.00
8093;DHT22;4089;52.420;13.334;2023-07-09T10:51:37;31.30;46.30
8093;DHT22;4089;52.420;13.334;2023-07-09T10:57:28;31.50;45.50
8093;DHT22;4089;52.420;13.334;2023-07-09T10:59:56;31.30;43.90
8093;DHT22;4089;52.420;13.334;2023-07-09T11:02:30;31.40;46.50
8093;DHT22;4089;52.420;13.334;2023-07-09T11:05:04;31.50;44.00
8093;DHT22;4089;52.420;13.334;2023-07-09T11:07:46;31.60;44.10
8093;DHT22;4089;52.420;13.334;2023-07-09T11:10:40;31.50;43.70
8093;DHT22;4089;52.420;13.334;2023-07-09T11:13:24;31.50;44.20
8093;DHT22;4089;52.420;13.334;2023-07-09T11:16:14;31.50;46.50
8093;DHT22;4089;52.420;13.334;2023-07-09T11:18:57;31.80;42.70
8093;DHT22;4089;52.420;13.334;2023-07-09T11:21:25;31.90;42.50
8093;DHT22;4089;52.420;13.334;2023-07-09T11:23:54;31.90;41.30
8093;DHT22;4089;52.420;13.334;2023-07-09T11:31:39;31.80;40.70
8093;DHT22;4089;52.420;13.334;2023-07-09T11:34:14;32.00;42.40
8093;DHT22;4089;52.420;13.334;2023-07-09T11:42:03;32.00;39.50
8093;DHT22;4089;52.420;13.334;2023-07-09T11:44:32;32.00;42.60
8093;DHT22;4089;52.420;13.334;2023-07-09T11:47:19;32.00;42.40
8093;DHT22;4089;52.420;13.334;2023-07-09T11:55:21;31.90;39.70
8093;DHT22;4089;52.420;13.334;2023-07-09T12:00:22;31.90;39.30
8093;DHT22;4089;52.420;13.334;2023-07-09T12:02:50;32.00;39.90
8093;DHT22;4089;52.420;13.334;2023-07-09T12:05:21;32.10;40.60
8093;DHT22;4089;52.420;13.334;2023-07-09T12:07:51;32.10;38.80
8093;DHT22;4089;52.420;13.334;2023-07-09T12:10:24;32.10;39.90
8093;DHT22;4089;52.420;13.334;2023-07-09T12:12:59;32.20;39.60
8093;DHT22;4089;52.420;13.334;2023-07-09T12:15:27;32.10;35.60
8093;DHT22;4089;52.420;13.334;2023-07-09T12:18:03;31.90;35.60
8093;DHT22;4089;52.420;13.334;2023-07-09T12:20:36;31.80;35.30
8093;DHT22;4089;52.420;13.334;2023-07-09T12:26:04;32.10;37.70
8093;DHT22;4089;52.420;13.334;2023-07-09T12:28:31;32.20;38.20
8093;DHT22;4089;52.420;13.334;2023-07-09T12:30:57;32.20;36.20
8093;DHT22;4089;52.420;13.334;2023-07-09T12:33:26;32.10;36.20
8093;DHT22;4089;52.420;13.334;2023-07-09T12:35:57;32.10;36.60
8093;DHT22;4089;52.420;13.334;2023-07-09T12:38:26;32.10;36.20
8093;DHT22;4089;52.420;13.334;2023-07-09T12:40:54;32.10;36.50
8093;DHT22;4089;52.420;13.334;2023-07-09T12:43:30;32.20;35.20
8093;DHT22;4089;52.420;13.334;2023-07-09T12:46:01;32.20;34.80
8093;DHT22;4089;52.420;13.334;2023-07-09T12:48:29;32.30;37.10
8093;DHT22;4089;52.420;13.334;2023-07-09T12:50:58;32.40;35.40
8093;DHT22;4089;52.420;13.334;2023-07-09T12:53:28;32.50;34.50
8093;DHT22;4089;52.420;13.334;2023-07-09T12:55:56;32.50;34.10
8093;DHT22;4089;52.420;13.334;2023-07-09T12:58:27;32.40;36.20
8093;DHT22;4089;52.420;13.334;2023-07-09T13:00:56;32.50;35.10
8093;DHT22;4089;52.420;13.334;2023-07-09T13:03:28;32.50;34.10
8093;DHT22;4089;52.420;13.334;2023-07-09T13:06:04;32.70;34.30
8093;DHT22;4089;52.420;13.334;2023-07-09T13:08:42;32.70;34.70
8093;DHT22;4089;52.420;13.334;2023-07-09T13:11:18;32.70;34.70
8093;DHT22;4089;52.420;13.334;2023-07-09T13:14:02;32.70;34.60
8093;DHT22;4089;52.420;13.334;2023-07-09T13:16:29;32.60;34.20
8093;DHT22;4089;52.420;13.334;2023-07-09T13:18:56;32.30;33.80
8093;DHT22;4089;52.420;13.334;2023-07-09T13:21:23;32.30;34.00
8093;DHT22;4089;52.420;13.334;2023-07-09T13:23:52;32.20;34.20
8093;DHT22;4089;52.420;13.334;2023-07-09T13:26:19;32.30;34.10
8093;DHT22;4089;52.420;13.334;2023-07-09T13:28:45;32.50;35.50
8093;DHT22;4089;52.420;13.334;2023-07-09T13:31:15;32.70;33.50
8093;DHT22;4089;52.420;13.334;2023-07-09T13:34:17;32.80;34.80
8093;DHT22;4089;52.420;13.334;2023-07-09T13:36:44;33.10;35.70
8093;DHT22;4089;52.420;13.334;2023-07-09T13:39:11;33.50;35.50
8093;DHT22;4089;52.420;13.334;2023-07-09T13:41:39;34.10;34.30
8093;DHT22;4089;52.420;13.334;2023-07-09T13:44:28;34.50;35.80
8093;DHT22;4089;52.420;13.334;2023-07-09T13:46:55;35.00;34.70
8093;DHT22;4089;52.420;13.334;2023-07-09T13:49:25;35.20;32.60
8093;DHT22;4089;52.420;13.334;2023-07-09T13:51:57;35.60;31.90
8093;DHT22;4089;52.420;13.334;2023-07-09T13:54:28;35.40;30.30
8093;DHT22;4089;52.420;13.334;2023-07-09T13:57:02;35.60;30.20
8093;DHT22;4089;52.420;13.334;2023-07-09T13:59:29;36.00;30.90
8093;DHT22;4089;52.420;13.334;2023-07-09T14:01:58;36.30;28.50
8093;DHT22;4089;52.420;13.334;2023-07-09T14:04:27;36.60;29.00
8093;DHT22;4089;52.420;13.334;2023-07-09T14:06:54;37.00;30.40
8093;DHT22;4089;52.420;13.334;2023-07-09T14:09:22;37.20;31.00
8093;DHT22;4089;52.420;13.334;2023-07-09T14:11:51;37.50;28.30
8093;DHT22;4089;52.420;13.334;2023-07-09T14:14:22;37.20;27.50
8093;DHT22;4089;52.420;13.334;2023-07-09T14:16:51;36.80;26.80
8093;DHT22;4089;52.420;13.334;2023-07-09T14:19:20;36.80;27.20
8093;DHT22;4089;52.420;13.334;2023-07-09T14:21:51;37.30;27.00
8093;DHT22;4089;52.420;13.334;2023-07-09T14:24:21;37.20;26.10
8093;DHT22;4089;52.420;13.334;2023-07-09T14:26:52;37.00;27.00
8093;DHT22;4089;52.420;13.334;2023-07-09T14:29:20;36.80;27.40
8093;DHT22;4089;52.420;13.334;2023-07-09T14:31:48;36.40;26.20
8093;DHT22;4089;52.420;13.334;2023-07-09T14:34:23;35.90;25.90
8093;DHT22;4089;52.420;13.334;2023-07-09T14:36:52;35.50;27.80
8093;DHT22;4089;52.420;13.334;2023-07-09T14:39:19;35.30;27.20
8093;DHT22;4089;52.420;13.334;2023-07-09T14:41:46;35.10;26.60
8093;DHT22;4089;52.420;13.334;2023-07-09T14:44:31;35.20;26.50
8093;DHT22;4089;52.420;13.334;2023-07-09T14:46:59;34.90;27.20
8093;DHT22;4089;52.420;13.334;2023-07-09T14:49:27;34.60;26.80
8093;DHT22;4089;52.420;13.334;2023-07-09T14:51:55;34.10;27.30
8093;DHT22;4089;52.420;13.334;2023-07-09T14:54:25;33.60;26.10
8093;DHT22;4089;52.420;13.334;2023-07-09T14:56:54;33.20;26.20
8093;DHT22;4089;52.420;13.334;2023-07-09T14:59:21;32.80;26.30
8093;DHT22;4089;52.420;13.334;2023-07-09T15:01:49;32.80;27.00
8093;DHT22;4089;52.420;13.334;2023-07-09T15:06:52;33.20;26.60
8093;DHT22;4089;52.420;13.334;2023-07-09T15:09:20;33.40;26.30
8093;DHT22;4089;52.420;13.334;2023-07-09T15:11:50;33.30;26.10
8093;DHT22;4089;52.420;13.334;2023-07-09T15:14:17;33.30;27.20
8093;DHT22;4089;52.420;13.334;2023-07-09T15:16:49;33.30;26.50
8093;DHT22;4089;52.420;13.334;2023-07-09T15:19:19;33.40;26.80
8093;DHT22;4089;52.420;13.334;2023-07-09T15:21:50;33.20;26.60
8093;DHT22;4089;52.420;13.334;2023-07-09T15:24:34;33.20;26.70
8093;DHT22;4089;52.420;13.334;2023-07-09T15:27:02;33.00;26.60
8093;DHT22;4089;52.420;13.334;2023-07-09T15:29:30;32.90;28.10
8093;DHT22;4089;52.420;13.334;2023-07-09T15:31:58;32.80;26.90
8093;DHT22;4089;52.420;13.334;2023-07-09T15:34:26;32.90;26.50
8093;DHT22;4089;52.420;13.334;2023-07-09T15:36:53;32.90;27.50
8093;DHT22;4089;52.420;13.334;2023-07-09T15:39:21;32.90;27.10
8093;DHT22;4089;52.420;13.334;2023-07-09T15:41:48;32.80;27.20
8093;DHT22;4089;52.420;13.334;2023-07-09T15:44:16;32.80;27.80
8093;DHT22;4089;52.420;13.334;2023-07-09T15:46:50;32.80;27.20
8093;DHT22;4089;52.420;13.334;2023-07-09T15:49:18;32.70;27.90
8093;DHT22;4089;52.420;13.334;2023-07-09T15:51:45;32.70;27.80
8093;DHT22;4089;52.420;13.334;2023-07-09T15:54:20;32.60;27.50
8093;DHT22;4089;52.420;13.334;2023-07-09T15:56:48;32.50;27.30
8093;DHT22;4089;52.420;13.334;2023-07-09T15:59:31;32.40;27.60
8093;DHT22;4089;52.420;13.334;2023-07-09T16:01:59;32.30;26.90
8093;DHT22;4089;52.420;13.334;2023-07-09T16:04:27;32.20;27.80
8093;DHT22;4089;52.420;13.334;2023-07-09T16:06:54;32.20;28.50
8093;DHT22;4089;52.420;13.334;2023-07-09T16:09:22;32.30;28.70
8093;DHT22;4089;52.420;13.334;2023-07-09T16:11:51;32.30;29.00
8093;DHT22;4089;52.420;13.334;2023-07-09T16:14:31;32.30;29.00
8093;DHT22;4089;52.420;13.334;2023-07-09T16:17:00;32.30;28.40
8093;DHT22;4089;52.420;13.334;2023-07-09T16:19:30;32.20;28.50
8093;DHT22;4089;52.420;13.334;2023-07-09T16:22:02;32.10;28.60
8093;DHT22;4089;52.420;13.334;2023-07-09T16:24:32;32.00;29.40
8093;DHT22;4089;52.420;13.334;2023-07-09T16:27:01;31.80;28.50
8093;DHT22;4089;52.420;13.334;2023-07-09T16:29:31;31.80;28.60
8093;DHT22;4089;52.420;13.334;2023-07-09T16:31:59;31.70;28.20
8093;DHT22;4089;52.420;13.334;2023-07-09T16:34:28;31.70;28.10
8093;DHT22;4089;52.420;13.334;2023-07-09T16:36:55;31.70;28.50
8093;DHT22;4089;52.420;13.334;2023-07-09T16:41:56;31.80;28.60
8093;DHT22;4089;52.420;13.334;2023-07-09T16:44:24;31.70;29.00
8093;DHT22;4089;52.420;13.334;2023-07-09T16:46:52;31.70;29.40
8093;DHT22;4089;52.420;13.334;2023-07-09T16:49:40;31.60;28.70
8093;DHT22;4089;52.420;13.334;2023-07-09T16:52:21;31.50;28.90
8093;DHT22;4089;52.420;13.334;2023-07-09T16:54:53;31.50;29.00
8093;DHT22;4089;52.420;13.334;2023-07-09T16:57:24;31.40;28.60